Time;durP1;ratioP1;P1;durP2;ratioP2;P2;SDS_P1;SDS_P2;PMS_P1;PMS_P2;Temp;Humidity;BMP_temperature;BMP_pressure;BME280_temperature;BME280_humidity;BME280_pressure;Samples;Min_cycle;Max_cycle;Signal;HPM_P1;HPM_P2
2022/12/29 00:01:19;;;;;;;;;;;;;;;5.14;72.83;100963.44;5016488;28;19914;-85
2022/12/29 00:03:48;;;;;;;;;;;;;;;5.26;72.36;100963.75;5023632;28;19913;-87
2022/12/29 00:06:13;;;;;;;;;;;;;;;5.18;72.38;100966.16;5023387;28;20024;-86
2022/12/29 00:08:41;;;;;;;;;;;;;;;5.17;72.14;100953.06;5015131;28;19963;-87
2022/12/29 00:11:07;;;;;;;;;;;;;;;5.17;71.74;100961.81;5015115;28;19913;-87
2022/12/29 00:16:16;;;;;;;;;;;;;;;4.93;71.37;100962.00;5014894;28;20453;-90
2022/12/29 00:18:43;;;;;;;;;;;;;;;4.91;70.64;100966.31;5014841;28;19921;-90
2022/12/29 00:35:08;;;;;;;;;;;;;;;4.69;71.07;100987.44;5014652;28;19921;-90
2022/12/29 00:46:04;;;;;;;;;;;;;;;4.69;72.28;100992.66;5014485;28;19935;-91
2022/12/29 00:51:13;;;;;;;;;;;;;;;4.56;73.74;101007.97;5014263;28;19948;-89
2022/12/29 00:53:38;;;;;;;;;;;;;;;4.45;75.06;101012.88;5014500;28;19917;-90
2022/12/29 00:56:06;;;;;;;;;;;;;;;4.38;76.22;101008.28;5014629;28;19960;-90
2022/12/29 00:58:31;;;;;;;;;;;;;;;4.45;77.41;101010.25;5014590;28;19941;-90
2022/12/29 01:01:03;;;;;;;;;;;;;;;4.55;77.56;101010.53;5014163;28;20346;-90
2022/12/29 01:03:28;;;;;;;;;;;;;;;4.77;77.29;101006.84;5013887;28;20398;-89
2022/12/29 01:05:53;;;;;;;;;;;;;;;4.77;77.56;101010.38;5014076;28;20008;-89
2022/12/29 01:08:20;;;;;;;;;;;;;;;4.90;77.30;101011.59;5012530;28;19914;-90
2022/12/29 01:10:45;;;;;;;;;;;;;;;5.02;77.06;101005.84;5012813;28;19917;-88
2022/12/29 01:13:10;;;;;;;;;;;;;;;5.12;76.64;101006.97;5013903;28;19944;-88
2022/12/29 01:15:36;;;;;;;;;;;;;;;5.08;76.89;101002.50;5013024;28;19913;-87
2022/12/29 01:18:01;;;;;;;;;;;;;;;5.25;76.87;101002.97;5014046;28;20398;-87
2022/12/29 01:20:28;;;;;;;;;;;;;;;5.37;76.61;100996.31;5013606;28;20016;-89
2022/12/29 01:22:53;;;;;;;;;;;;;;;5.29;77.07;100997.88;5013859;28;19921;-88
2022/12/29 01:25:18;;;;;;;;;;;;;;;5.30;77.00;100998.72;5013905;28;19913;-88
2022/12/29 01:27:44;;;;;;;;;;;;;;;5.42;76.42;101006.03;5013575;28;19919;-87
2022/12/29 01:30:09;;;;;;;;;;;;;;;5.30;76.11;101003.97;5014506;28;19913;-88
2022/12/29 01:32:34;;;;;;;;;;;;;;;5.43;76.34;100993.00;5013553;28;20418;-88
2022/12/29 01:35:00;;;;;;;;;;;;;;;5.30;76.70;100993.50;5012008;28;20291;-88
2022/12/29 01:37:25;;;;;;;;;;;;;;;5.30;76.80;100996.13;5013501;28;19914;-89
2022/12/29 01:39:50;;;;;;;;;;;;;;;5.37;77.07;100991.09;5014281;28;19913;-90
2022/12/29 01:42:17;;;;;;;;;;;;;;;5.60;76.27;100997.81;5011409;28;19914;-90
2022/12/29 01:44:53;;;;;;;;;;;;;;;5.50;76.38;100992.34;5013834;28;19941;-89
2022/12/29 01:47:37;;;;;;;;;;;;;;;5.64;76.15;100986.53;5013967;28;19941;-91
2022/12/29 01:50:05;;;;;;;;;;;;;;;5.62;76.43;100983.00;5012293;28;19935;-90
2022/12/29 01:52:32;;;;;;;;;;;;;;;5.61;76.61;100974.28;4995581;28;20008;-89
2022/12/29 01:54:58;;;;;;;;;;;;;;;5.67;76.02;100977.06;5013438;28;19969;-89
2022/12/29 01:57:34;;;;;;;;;;;;;;;5.68;76.32;100978.81;5012966;28;20383;-90
2022/12/29 02:00:10;;;;;;;;;;;;;;;5.69;75.86;100974.47;5012327;28;19936;-89
2022/12/29 02:02:36;;;;;;;;;;;;;;;5.69;75.52;100970.13;5012971;28;20020;-90
2022/12/29 02:05:05;;;;;;;;;;;;;;;5.48;75.91;100966.94;5013062;28;20000;-91
2022/12/29 02:07:31;;;;;;;;;;;;;;;5.36;76.05;100957.03;5013434;28;19956;-88
2022/12/29 02:09:56;;;;;;;;;;;;;;;5.44;75.68;100954.63;5013106;28;19909;-89
2022/12/29 02:12:23;;;;;;;;;;;;;;;5.47;76.08;100944.22;5013054;28;19914;-89
2022/12/29 02:14:52;;;;;;;;;;;;;;;5.47;76.11;100952.09;5011946;28;19913;-89
2022/12/29 02:17:28;;;;;;;;;;;;;;;5.52;76.32;100953.97;5013940;28;19913;-88
2022/12/29 02:19:56;;;;;;;;;;;;;;;5.59;76.50;100946.28;5021463;28;19914;-89
2022/12/29 02:22:21;;;;;;;;;;;;;;;5.45;76.86;100946.81;5018943;28;19913;-88
2022/12/29 02:24:59;;;;;;;;;;;;;;;5.64;76.90;100937.72;5013265;28;20318;-89
2022/12/29 02:27:48;;;;;;;;;;;;;;;5.62;76.89;100931.53;5011692;28;19949;-88
2022/12/29 02:30:25;;;;;;;;;;;;;;;5.77;76.84;100930.16;5013192;28;20379;-88
2022/12/29 02:33:00;;;;;;;;;;;;;;;5.83;77.03;100927.69;5011578;28;19917;-88
2022/12/29 02:35:44;;;;;;;;;;;;;;;5.77;77.26;100930.16;5013179;28;20000;-88
2022/12/29 02:41:15;;;;;;;;;;;;;;;5.94;76.69;100920.97;5012898;28;19916;-92
2022/12/29 02:43:40;;;;;;;;;;;;;;;6.08;76.00;100916.94;5012557;28;19976;-90
2022/12/29 02:46:08;;;;;;;;;;;;;;;6.08;76.42;100910.84;5012848;28;19913;-89
2022/12/29 02:48:45;;;;;;;;;;;;;;;6.07;76.31;100909.97;5012673;28;19909;-89
2022/12/29 02:51:15;;;;;;;;;;;;;;;5.95;77.16;100911.34;5013017;28;19913;-89
2022/12/29 02:56:24;;;;;;;;;;;;;;;5.82;78.03;100904.97;5016976;28;19964;-89
2022/12/29 02:58:50;;;;;;;;;;;;;;;5.82;78.55;100905.84;5016605;28;19918;-88
2022/12/29 03:01:21;;;;;;;;;;;;;;;5.92;78.11;100913.06;5016738;28;20363;-88
2022/12/29 03:03:49;;;;;;;;;;;;;;;6.01;77.85;100906.28;5017245;28;19920;-88
2022/12/29 03:06:20;;;;;;;;;;;;;;;6.06;77.64;100894.22;5016636;28;19918;-89
2022/12/29 03:08:57;;;;;;;;;;;;;;;6.14;77.59;100895.25;5015096;28;20334;-88
2022/12/29 03:16:59;;;;;;;;;;;;;;;5.93;78.56;100895.59;5016282;28;19921;-90
2022/12/29 03:19:35;;;;;;;;;;;;;;;6.04;78.72;100903.75;5015180;28;19914;-90
2022/12/29 03:24:51;;;;;;;;;;;;;;;6.07;78.49;100896.88;5034876;28;19937;-89
2022/12/29 03:27:19;;;;;;;;;;;;;;;6.09;79.00;100889.03;5030685;28;19987;-90
2022/12/29 03:29:53;;;;;;;;;;;;;;;6.08;78.93;100887.25;5014913;28;19948;-90
2022/12/29 03:32:20;;;;;;;;;;;;;;;6.18;78.79;100894.47;5016464;28;19971;-90
2022/12/29 03:34:46;;;;;;;;;;;;;;;6.17;78.57;100891.81;5016053;28;19913;-91
2022/12/29 03:37:14;;;;;;;;;;;;;;;6.12;78.56;100896.97;5016154;28;20051;-91
2022/12/29 03:39:40;;;;;;;;;;;;;;;6.21;77.93;100899.78;5015930;28;20387;-89
2022/12/29 03:42:13;;;;;;;;;;;;;;;6.15;78.63;100897.03;5015811;28;20018;-89
2022/12/29 03:44:40;;;;;;;;;;;;;;;6.32;77.71;100886.91;5016066;28;19910;-89
2022/12/29 03:47:06;;;;;;;;;;;;;;;6.23;76.75;100894.59;5015581;28;20383;-90
2022/12/29 03:49:32;;;;;;;;;;;;;;;6.17;76.85;100886.59;5014389;28;19914;-90
2022/12/29 03:51:58;;;;;;;;;;;;;;;6.26;75.96;100884.16;5014272;28;19937;-90
2022/12/29 03:54:23;;;;;;;;;;;;;;;6.03;75.46;100887.16;5015309;28;19913;-90
2022/12/29 03:56:48;;;;;;;;;;;;;;;5.64;74.76;100898.44;5015173;28;19914;-90
2022/12/29 04:02:16;;;;;;;;;;;;;;;5.17;76.15;100896.41;5015724;28;19967;-89
2022/12/29 04:04:41;;;;;;;;;;;;;;;5.18;75.64;100892.94;5014370;28;19921;-88
2022/12/29 04:07:06;;;;;;;;;;;;;;;5.27;75.66;100897.53;5015540;28;20015;-85
2022/12/29 04:09:32;;;;;;;;;;;;;;;5.42;74.86;100897.00;5015690;28;19909;-90
2022/12/29 04:11:57;;;;;;;;;;;;;;;5.37;74.57;100902.13;5013631;28;20361;-88
2022/12/29 04:14:22;;;;;;;;;;;;;;;5.27;75.25;100902.75;5015378;28;19980;-86
2022/12/29 04:16:48;;;;;;;;;;;;;;;5.55;74.78;100901.72;5015604;28;19913;-87
2022/12/29 04:19:13;;;;;;;;;;;;;;;5.59;74.49;100907.91;5015130;28;19948;-87
2022/12/29 04:21:38;;;;;;;;;;;;;;;5.52;73.96;100906.00;5015443;28;19971;-87
2022/12/29 04:24:06;;;;;;;;;;;;;;;5.51;74.73;100905.09;5015132;28;19913;-89
2022/12/29 04:26:31;;;;;;;;;;;;;;;5.27;75.09;100909.72;5014732;28;19917;-90
2022/12/29 04:28:56;;;;;;;;;;;;;;;5.31;75.34;100917.66;5014815;28;19921;-91
2022/12/29 04:31:22;;;;;;;;;;;;;;;5.33;75.31;100921.22;5014871;28;19956;-93
2022/12/29 04:33:47;;;;;;;;;;;;;;;5.27;75.98;100915.84;5014664;28;19914;-92
2022/12/29 04:36:14;;;;;;;;;;;;;;;5.28;76.07;100920.19;5014088;28;19913;-94
2022/12/29 04:38:39;;;;;;;;;;;;;;;4.92;77.84;100925.34;5013258;28;19920;-94
2022/12/29 04:41:05;;;;;;;;;;;;;;;5.04;77.38;100927.44;5014760;28;19917;-94
2022/12/29 04:43:30;;;;;;;;;;;;;;;4.85;78.55;100926.91;5014295;28;19920;-96
2022/12/29 04:49:00;;;;;;;;;;;;;;;4.89;78.99;100949.66;5014815;28;19966;-90
2022/12/29 04:51:27;;;;;;;;;;;;;;;4.97;78.79;100942.03;5012829;28;20295;-88
2022/12/29 04:53:52;;;;;;;;;;;;;;;5.09;78.19;100952.84;5013030;28;20007;-89
2022/12/29 04:56:17;;;;;;;;;;;;;;;4.76;79.07;100947.56;5013202;28;19972;-88
2022/12/29 04:58:42;;;;;;;;;;;;;;;4.98;78.48;100943.81;5014272;28;20494;-90
2022/12/29 05:01:08;;;;;;;;;;;;;;;4.96;78.17;100948.13;5014181;28;19914;-90
2022/12/29 05:03:33;;;;;;;;;;;;;;;5.07;78.08;100943.22;5014671;28;19967;-92
2022/12/29 05:05:58;;;;;;;;;;;;;;;5.03;78.17;100939.59;5014678;28;19917;-92
2022/12/29 05:08:24;;;;;;;;;;;;;;;5.05;77.86;100942.25;5014251;28;19917;-92
2022/12/29 05:10:50;;;;;;;;;;;;;;;4.93;77.87;100951.53;5014621;28;19913;-93
2022/12/29 05:13:16;;;;;;;;;;;;;;;4.93;77.50;100959.38;5014133;28;20000;-93
2022/12/29 05:15:45;;;;;;;;;;;;;;;4.87;77.50;100960.97;5014046;28;19955;-91
2022/12/29 05:18:10;;;;;;;;;;;;;;;4.91;77.12;100960.19;5013464;28;19913;-91
2022/12/29 05:20:36;;;;;;;;;;;;;;;4.92;76.45;100962.84;5012627;28;20326;-90
2022/12/29 05:23:01;;;;;;;;;;;;;;;4.89;76.34;100959.25;5012967;28;19914;-91
2022/12/29 05:28:29;;;;;;;;;;;;;;;4.57;75.79;100957.50;5014092;28;19917;-92
2022/12/29 05:30:54;;;;;;;;;;;;;;;4.51;75.95;100951.19;5012247;28;19918;-92
2022/12/29 05:33:20;;;;;;;;;;;;;;;4.61;75.80;100961.06;5012684;28;19953;-93
2022/12/29 05:35:45;;;;;;;;;;;;;;;4.59;75.37;100960.16;5012631;28;19956;-95
2022/12/29 05:38:11;;;;;;;;;;;;;;;4.39;75.36;100955.22;5014156;28;20368;-93
2022/12/29 05:40:36;;;;;;;;;;;;;;;4.56;74.53;100955.72;5012244;28;20253;-92
2022/12/29 05:43:02;;;;;;;;;;;;;;;4.32;74.87;100947.13;5012489;28;19992;-93
2022/12/29 05:45:27;;;;;;;;;;;;;;;4.35;74.90;100947.22;5012688;28;20326;-94
2022/12/29 05:47:52;;;;;;;;;;;;;;;4.28;74.55;100951.41;5012878;28;19924;-95
2022/12/29 05:50:18;;;;;;;;;;;;;;;4.22;74.70;100946.84;5013153;28;20047;-94
2022/12/29 05:52:43;;;;;;;;;;;;;;;4.37;74.44;100941.22;5012241;28;19913;-94
2022/12/29 05:55:08;;;;;;;;;;;;;;;4.05;74.73;100948.06;5012373;28;20391;-92
2022/12/29 05:57:34;;;;;;;;;;;;;;;3.47;76.15;100950.53;5012830;28;19920;-93
2022/12/29 05:59:59;;;;;;;;;;;;;;;3.78;74.58;100942.84;5011994;28;20000;-95
2022/12/29 06:02:24;;;;;;;;;;;;;;;3.66;74.24;100946.81;5012326;28;20423;-93
2022/12/29 06:04:50;;;;;;;;;;;;;;;3.37;74.68;100949.34;5013666;28;19965;-93
2022/12/29 06:07:15;;;;;;;;;;;;;;;3.71;74.61;100952.19;5012079;28;20295;-94
2022/12/29 06:09:40;;;;;;;;;;;;;;;3.78;74.38;100951.53;5011760;28;19941;-91
2022/12/29 06:12:06;;;;;;;;;;;;;;;3.70;74.15;100948.69;5013117;28;19967;-91
2022/12/29 06:14:31;;;;;;;;;;;;;;;3.65;75.35;100938.94;5013200;28;19913;-91
2022/12/29 06:16:56;;;;;;;;;;;;;;;3.72;75.25;100948.72;5012165;28;20397;-91
2022/12/29 06:19:22;;;;;;;;;;;;;;;3.90;74.90;100951.94;5013587;28;19972;-95
2022/12/29 06:21:47;;;;;;;;;;;;;;;3.67;76.49;100948.56;5011916;28;20391;-89
2022/12/29 06:24:13;;;;;;;;;;;;;;;3.61;76.50;100944.88;5011941;28;20352;-90
2022/12/29 06:26:40;;;;;;;;;;;;;;;3.75;76.17;100943.63;5013316;28;19913;-89
2022/12/29 06:29:06;;;;;;;;;;;;;;;4.10;75.17;100939.50;5012632;28;19924;-88
2022/12/29 06:31:32;;;;;;;;;;;;;;;4.14;75.11;100940.53;5013053;28;19920;-89
2022/12/29 06:33:57;;;;;;;;;;;;;;;4.18;75.45;100944.97;5013219;28;20069;-91
2022/12/29 06:36:22;;;;;;;;;;;;;;;4.27;74.48;100942.66;5011782;28;19921;-96
2022/12/29 06:38:48;;;;;;;;;;;;;;;4.28;74.75;100947.03;5012049;28;20399;-94
2022/12/29 06:44:16;;;;;;;;;;;;;;;4.19;76.08;100953.72;5014524;28;20010;-93
2022/12/29 06:46:41;;;;;;;;;;;;;;;4.28;75.87;100954.88;5016432;28;19917;-90
2022/12/29 06:49:06;;;;;;;;;;;;;;;4.29;76.39;100956.66;5036889;28;19928;-94
2022/12/29 06:51:32;;;;;;;;;;;;;;;4.48;76.48;100965.06;5027991;28;20338;-92
2022/12/29 06:53:57;;;;;;;;;;;;;;;4.73;76.40;100963.19;5026104;28;19918;-93
2022/12/29 06:56:22;;;;;;;;;;;;;;;4.51;78.21;100969.47;5025531;28;19913;-92
2022/12/29 06:58:48;;;;;;;;;;;;;;;4.73;79.00;100963.19;5025448;28;19913;-91
2022/12/29 07:01:13;;;;;;;;;;;;;;;4.60;79.50;100968.03;5014474;28;20032;-95
2022/12/29 07:03:42;;;;;;;;;;;;;;;4.74;80.26;100971.06;5013596;28;19913;-95
2022/12/29 07:06:08;;;;;;;;;;;;;;;4.93;80.28;100969.84;5007574;28;19968;-94
2022/12/29 07:08:33;;;;;;;;;;;;;;;4.94;80.92;100965.50;5009190;28;19917;-94
2022/12/29 07:10:59;;;;;;;;;;;;;;;5.04;82.14;100969.28;5003294;28;19917;-93
2022/12/29 07:13:25;;;;;;;;;;;;;;;5.30;82.45;100969.97;5006100;28;19922;-95
2022/12/29 07:15:50;;;;;;;;;;;;;;;5.76;81.67;100975.50;5011624;28;19920;-96
2022/12/29 07:18:15;;;;;;;;;;;;;;;5.72;80.47;100974.56;5016639;28;19941;-96
2022/12/29 07:20:41;;;;;;;;;;;;;;;5.40;81.53;100974.59;5005967;28;20296;-95
2022/12/29 07:23:06;;;;;;;;;;;;;;;5.52;80.71;100984.50;5001556;28;19918;-96
2022/12/29 07:25:35;;;;;;;;;;;;;;;5.31;81.05;100977.84;5010416;28;19982;-96
2022/12/29 07:28:01;;;;;;;;;;;;;;;5.40;81.17;100976.34;5007961;28;19914;-89
2022/12/29 07:30:27;;;;;;;;;;;;;;;5.55;80.51;100982.84;5009460;28;19913;-89
2022/12/29 07:32:52;;;;;;;;;;;;;;;5.83;80.24;100988.78;5007388;28;19940;-92
2022/12/29 07:35:18;;;;;;;;;;;;;;;5.81;79.13;100993.13;4992502;28;20086;-92
2022/12/29 07:37:43;;;;;;;;;;;;;;;5.52;79.96;100982.78;4990138;28;20295;-88
2022/12/29 07:40:09;;;;;;;;;;;;;;;5.54;80.54;100980.19;4992897;28;20008;-89
2022/12/29 07:42:34;;;;;;;;;;;;;;;5.64;79.50;100981.31;5012918;28;19909;-91
2022/12/29 07:44:59;;;;;;;;;;;;;;;5.74;79.14;100986.81;5012857;28;20026;-89
2022/12/29 07:47:25;;;;;;;;;;;;;;;6.00;78.46;100989.25;5016331;28;19957;-92
2022/12/29 07:49:50;;;;;;;;;;;;;;;6.07;77.77;100993.78;5016605;28;19919;-90
2022/12/29 07:52:16;;;;;;;;;;;;;;;6.23;78.60;100989.78;5016017;28;19913;-93
2022/12/29 07:54:43;;;;;;;;;;;;;;;6.48;77.77;100979.88;5017005;28;19949;-88
2022/12/29 07:57:08;;;;;;;;;;;;;;;6.62;77.50;100978.41;5014841;28;19971;-88
2022/12/29 08:02:37;;;;;;;;;;;;;;;7.00;75.45;100980.09;5016633;28;19968;-88
2022/12/29 08:05:02;;;;;;;;;;;;;;;7.04;75.16;100986.28;5015785;28;19921;-93
2022/12/29 08:07:27;;;;;;;;;;;;;;;6.80;76.35;100987.56;5015744;28;20368;-91
2022/12/29 08:09:53;;;;;;;;;;;;;;;6.66;77.93;100992.50;5015438;28;19975;-91
2022/12/29 08:12:19;;;;;;;;;;;;;;;6.45;78.54;100996.41;5017099;28;20268;-91
2022/12/29 08:14:44;;;;;;;;;;;;;;;6.82;77.96;100996.31;5016969;28;20427;-91
2022/12/29 08:17:09;;;;;;;;;;;;;;;7.16;76.34;100997.03;5016557;28;19914;-91
2022/12/29 08:22:45;;;;;;;;;;;;;;;7.11;76.65;101001.31;5022850;28;20336;-95
2022/12/29 08:25:10;;;;;;;;;;;;;;;7.40;76.33;100996.63;5016571;28;20276;-94
2022/12/29 08:27:36;;;;;;;;;;;;;;;7.59;75.33;100992.56;5033927;28;20016;-95
2022/12/29 08:30:01;;;;;;;;;;;;;;;7.96;72.62;100993.22;5017594;28;19921;-94
2022/12/29 08:32:28;;;;;;;;;;;;;;;7.79;73.53;100994.69;5032622;28;19963;-94
2022/12/29 08:34:53;;;;;;;;;;;;;;;7.91;72.70;100983.47;5015498;28;19914;-88
2022/12/29 08:37:19;;;;;;;;;;;;;;;7.60;73.81;100977.69;5014603;28;19913;-91
2022/12/29 08:39:45;;;;;;;;;;;;;;;8.11;72.27;100974.19;5015307;28;19940;-90
2022/12/29 08:42:10;;;;;;;;;;;;;;;8.08;71.38;100976.75;5015482;28;19920;-91
2022/12/29 08:44:36;;;;;;;;;;;;;;;7.94;72.25;100976.53;5014607;28;19914;-90
2022/12/29 08:50:04;;;;;;;;;;;;;;;8.14;70.76;100973.31;5014460;28;19959;-90
2022/12/29 08:55:33;;;;;;;;;;;;;;;8.45;68.49;100965.91;5014482;28;19916;-90
2022/12/29 08:57:58;;;;;;;;;;;;;;;8.55;68.88;100957.31;5014197;28;20372;-90
2022/12/29 09:00:23;;;;;;;;;;;;;;;8.51;69.39;100963.38;5014330;28;19920;-91
2022/12/29 09:02:48;;;;;;;;;;;;;;;8.66;69.61;100953.06;5013799;28;19913;-90
2022/12/29 09:05:14;;;;;;;;;;;;;;;8.96;67.74;100949.94;5012473;28;19922;-89
2022/12/29 09:07:39;;;;;;;;;;;;;;;8.93;67.02;100949.03;5015039;28;19920;-89
2022/12/29 09:13:07;;;;;;;;;;;;;;;9.26;66.33;100940.59;5014586;28;20283;-90
2022/12/29 09:15:33;;;;;;;;;;;;;;;9.35;65.47;100939.81;5013917;28;19914;-90
2022/12/29 09:17:58;;;;;;;;;;;;;;;8.87;66.72;100938.44;5014380;28;19913;-90
2022/12/29 09:20:24;;;;;;;;;;;;;;;8.82;68.15;100925.22;5014123;28;19936;-90
2022/12/29 09:22:49;;;;;;;;;;;;;;;9.09;67.19;100927.25;5014266;28;19949;-89
2022/12/29 09:25:15;;;;;;;;;;;;;;;9.26;66.20;100922.16;5014601;28;19917;-89
2022/12/29 09:27:41;;;;;;;;;;;;;;;9.47;65.52;100916.22;5013947;28;19913;-91
2022/12/29 09:30:08;;;;;;;;;;;;;;;9.23;66.19;100919.50;5013795;28;20319;-91
2022/12/29 09:32:34;;;;;;;;;;;;;;;9.20;67.44;100918.59;5027139;28;19913;-91
2022/12/29 09:35:00;;;;;;;;;;;;;;;9.27;66.05;100905.50;5012466;28;19921;-90
2022/12/29 09:37:25;;;;;;;;;;;;;;;9.43;65.30;100903.00;5013484;28;20283;-92
2022/12/29 09:39:50;;;;;;;;;;;;;;;9.47;65.64;100904.81;5014374;28;19917;-90
2022/12/29 09:42:27;;;;;;;;;;;;;;;9.37;65.82;100900.31;5014455;28;19913;-90
2022/12/29 09:45:11;;;;;;;;;;;;;;;9.47;65.54;100894.28;5013453;28;19964;-89
2022/12/29 09:50:40;;;;;;;;;;;;;;;9.62;66.41;100882.97;5013449;28;19920;-89
2022/12/29 09:53:28;;;;;;;;;;;;;;;9.80;64.73;100874.34;5013360;28;19917;-89
2022/12/29 09:55:55;;;;;;;;;;;;;;;9.90;64.67;100870.91;4994216;28;19913;-90
2022/12/29 09:58:29;;;;;;;;;;;;;;;9.71;65.62;100864.59;5011271;28;20023;-89
2022/12/29 10:01:04;;;;;;;;;;;;;;;9.72;65.47;100862.88;5012119;28;19920;-90
2022/12/29 10:03:45;;;;;;;;;;;;;;;9.62;66.35;100859.25;5012742;28;20427;-89
2022/12/29 10:06:14;;;;;;;;;;;;;;;10.04;65.93;100853.41;5013166;28;19924;-86
2022/12/29 10:08:48;;;;;;;;;;;;;;;9.86;65.12;100846.25;5011507;28;19914;-95
2022/12/29 10:11:26;;;;;;;;;;;;;;;10.00;64.39;100837.56;5030291;28;20486;-94
2022/12/29 10:14:10;;;;;;;;;;;;;;;10.27;63.64;100836.81;5015296;28;19913;-96
2022/12/29 10:16:54;;;;;;;;;;;;;;;10.13;63.36;100835.84;5018486;28;19917;-94
2022/12/29 10:19:47;;;;;;;;;;;;;;;10.18;63.49;100829.75;5032273;28;19902;-95
2022/12/29 10:22:23;;;;;;;;;;;;;;;10.38;63.19;100832.50;5023243;28;19924;-93
2022/12/29 10:24:51;;;;;;;;;;;;;;;10.09;63.67;100823.56;5032779;28;19914;-94
2022/12/29 10:30:21;;;;;;;;;;;;;;;10.00;64.43;100829.66;5017197;28;19964;-95
2022/12/29 10:32:52;;;;;;;;;;;;;;;9.92;64.37;100821.69;5033042;28;19914;-89
2022/12/29 10:35:20;;;;;;;;;;;;;;;9.80;64.79;100819.88;5014650;28;20071;-91
2022/12/29 10:40:55;;;;;;;;;;;;;;;10.44;62.42;100813.19;5017875;28;19932;-96
2022/12/29 10:43:26;;;;;;;;;;;;;;;9.89;63.35;100813.78;5220526;22;19928;-93
2022/12/29 10:45:59;;;;;;;;;;;;;;;10.06;63.61;100807.72;5021974;28;19933;-90
2022/12/29 10:48:50;;;;;;;;;;;;;;;10.30;63.20;100810.47;5022005;28;19921;-96
2022/12/29 10:51:27;;;;;;;;;;;;;;;10.59;62.47;100812.34;5234585;22;19944;-95
2022/12/29 10:53:58;;;;;;;;;;;;;;;10.35;63.73;100807.88;5021966;28;19932;-93
2022/12/29 10:59:32;;;;;;;;;;;;;;;10.16;63.69;100802.50;5029632;28;19916;-96
2022/12/29 11:02:25;;;;;;;;;;;;;;;10.07;63.64;100796.28;5003041;28;19918;-96
2022/12/29 11:07:57;;;;;;;;;;;;;;;10.63;62.18;100778.91;5013743;28;19916;-94
2022/12/29 11:13:30;;;;;;;;;;;;;;;10.72;62.48;100782.47;5012763;28;19971;-92
2022/12/29 11:15:59;;;;;;;;;;;;;;;10.98;62.42;100778.97;5014749;28;19964;-93
2022/12/29 11:18:39;;;;;;;;;;;;;;;10.97;62.68;100773.69;4999303;28;20359;-93
2022/12/29 11:24:26;;;;;;;;;;;;;;;10.93;61.74;100767.53;5016810;28;19937;-93
2022/12/29 11:26:56;;;;;;;;;;;;;;;11.16;60.77;100766.66;4998687;28;19909;-92
2022/12/29 11:32:32;;;;;;;;;;;;;;;11.15;61.73;100743.75;5015191;28;19972;-92
2022/12/29 11:34:58;;;;;;;;;;;;;;;11.01;62.68;100754.31;5022606;28;20371;-90
2022/12/29 11:37:27;;;;;;;;;;;;;;;10.61;63.95;100759.56;5002649;28;20345;-93
2022/12/29 11:39:52;;;;;;;;;;;;;;;10.80;62.79;100748.16;5015259;28;19921;-93
2022/12/29 11:42:19;;;;;;;;;;;;;;;10.96;62.96;100743.75;5000295;28;20248;-94
2022/12/29 11:44:46;;;;;;;;;;;;;;;11.19;61.78;100746.41;5000180;28;19925;-90
2022/12/29 11:47:32;;;;;;;;;;;;;;;11.20;61.34;100748.16;5016344;28;19917;-90
2022/12/29 11:50:03;;;;;;;;;;;;;;;10.97;61.91;100744.63;4999671;28;19920;-89
2022/12/29 11:52:32;;;;;;;;;;;;;;;10.87;61.94;100744.63;4994647;28;19922;-91
2022/12/29 11:55:07;;;;;;;;;;;;;;;10.98;62.00;100749.91;5007014;28;19921;-96
2022/12/29 12:00:40;;;;;;;;;;;;;;;11.09;62.13;100734.06;5019334;28;19952;-95
2022/12/29 12:06:12;;;;;;;;;;;;;;;11.13;61.21;100732.34;5019092;28;20040;-87
2022/12/29 12:08:47;;;;;;;;;;;;;;;11.14;60.81;100736.72;5015766;28;19914;-91
2022/12/29 12:11:22;;;;;;;;;;;;;;;11.10;60.95;100725.28;5014508;28;20012;-88
2022/12/29 12:16:56;;;;;;;;;;;;;;;11.37;60.84;100715.56;5017342;28;19920;-90
2022/12/29 12:19:27;;;;;;;;;;;;;;;10.97;61.38;100720.88;5014758;28;19913;-89
2022/12/29 12:21:59;;;;;;;;;;;;;;;10.96;61.37;100714.72;5017548;28;19924;-91
2022/12/29 12:27:39;;;;;;;;;;;;;;;11.33;60.41;100711.19;5014590;28;19916;-91
2022/12/29 12:30:11;;;;;;;;;;;;;;;11.20;60.73;100711.19;5015134;28;19913;-90
2022/12/29 12:32:52;;;;;;;;;;;;;;;11.08;61.19;100706.78;5015147;28;19921;-92
2022/12/29 12:35:39;;;;;;;;;;;;;;;11.25;60.55;100709.41;5014410;28;20402;-93
2022/12/29 12:41:25;;;;;;;;;;;;;;;11.50;59.35;100706.72;5014722;28;19917;-91
2022/12/29 12:43:54;;;;;;;;;;;;;;;11.49;59.34;100709.38;5013426;28;19917;-91
2022/12/29 12:46:28;;;;;;;;;;;;;;;11.51;59.83;100710.22;5014377;28;19914;-91
2022/12/29 12:49:03;;;;;;;;;;;;;;;11.60;59.44;100702.28;5014607;28;19976;-90
2022/12/29 12:51:31;;;;;;;;;;;;;;;11.68;59.46;100702.25;5014872;28;19913;-94
2022/12/29 12:54:23;;;;;;;;;;;;;;;11.79;59.12;100706.63;5014825;28;19956;-94
2022/12/29 12:57:00;;;;;;;;;;;;;;;11.58;59.82;100707.56;5032532;28;20409;-94
2022/12/29 12:59:52;;;;;;;;;;;;;;;11.82;58.55;100706.63;5016509;28;19913;-93
2022/12/29 13:02:46;;;;;;;;;;;;;;;11.83;58.25;100713.69;5031767;28;20386;-92
2022/12/29 13:05:25;;;;;;;;;;;;;;;11.70;57.97;100704.03;5016154;28;19920;-89
2022/12/29 13:07:51;;;;;;;;;;;;;;;11.78;57.68;100710.16;5034237;28;19920;-90
2022/12/29 13:10:35;;;;;;;;;;;;;;;11.63;58.14;100705.81;5033569;28;20037;-88
2022/12/29 13:13:18;;;;;;;;;;;;;;;11.52;58.54;100702.31;5034378;28;19913;-88
2022/12/29 13:18:57;;;;;;;;;;;;;;;11.52;58.64;100715.50;5034008;28;20391;-88
2022/12/29 13:21:38;;;;;;;;;;;;;;;11.60;58.40;100719.03;5033722;28;20411;-88
2022/12/29 13:24:20;;;;;;;;;;;;;;;11.48;59.13;100708.50;5034008;28;20371;-88
2022/12/29 13:27:01;;;;;;;;;;;;;;;11.59;59.39;100713.75;5033824;28;19963;-87
2022/12/29 13:29:36;;;;;;;;;;;;;;;11.52;59.01;100702.31;5033434;28;19917;-89
2022/12/29 13:32:23;;;;;;;;;;;;;;;11.30;59.61;100709.41;5015487;28;20206;-86
2022/12/29 13:37:54;;;;;;;;;;;;;;;11.40;59.52;100704.97;5032861;28;20004;-88
2022/12/29 13:40:23;;;;;;;;;;;;;;;11.51;59.35;100703.22;5033440;28;19913;-87
2022/12/29 13:42:49;;;;;;;;;;;;;;;11.41;59.86;100697.03;5033162;28;20019;-90
2022/12/29 13:48:22;;;;;;;;;;;;;;;11.29;60.21;100703.25;5033903;28;19917;-88
2022/12/29 13:50:55;;;;;;;;;;;;;;;11.34;59.89;100699.72;5032859;28;20012;-88
2022/12/29 13:53:26;;;;;;;;;;;;;;;11.43;59.55;100703.22;5033099;28;19952;-88
2022/12/29 13:55:55;;;;;;;;;;;;;;;11.60;59.62;100705.81;5033132;28;19921;-88
2022/12/29 13:58:32;;;;;;;;;;;;;;;11.64;59.39;100704.03;5033370;28;19916;-88
2022/12/29 14:01:10;;;;;;;;;;;;;;;11.52;59.43;100706.72;5032898;28;19913;-87
2022/12/29 14:03:44;;;;;;;;;;;;;;;11.57;59.16;100707.56;5033115;28;19920;-91
2022/12/29 14:09:31;;;;;;;;;;;;;;;11.57;58.96;100711.13;5033255;28;20016;-90
2022/12/29 14:11:56;;;;;;;;;;;;;;;11.35;60.02;100709.41;5032697;28;19920;-88
2022/12/29 14:14:27;;;;;;;;;;;;;;;11.27;60.48;100709.41;5032419;28;19916;-88
2022/12/29 14:19:55;;;;;;;;;;;;;;;11.24;60.65;100707.66;5033043;28;19916;-86
2022/12/29 14:22:25;;;;;;;;;;;;;;;11.20;60.59;100707.66;5014813;28;20371;-86
2022/12/29 14:24:50;;;;;;;;;;;;;;;11.14;60.44;100705.03;5032695;28;19999;-87
2022/12/29 14:27:16;;;;;;;;;;;;;;;11.13;60.75;100706.78;5033048;28;20056;-87
2022/12/29 14:33:01;;;;;;;;;;;;;;;11.24;60.22;100709.41;5032859;28;19968;-87
2022/12/29 14:35:40;;;;;;;;;;;;;;;11.08;60.79;100708.56;5031141;28;19914;-89
2022/12/29 14:38:16;;;;;;;;;;;;;;;11.01;60.82;100702.38;5032600;28;20011;-88
2022/12/29 14:40:43;;;;;;;;;;;;;;;10.97;61.12;100710.31;5014314;28;19919;-89
2022/12/29 14:43:13;;;;;;;;;;;;;;;11.06;60.91;100715.59;5032265;28;19913;-87
2022/12/29 14:45:41;;;;;;;;;;;;;;;10.80;61.56;100712.94;5032355;28;19913;-87
2022/12/29 14:48:41;;;;;;;;;;;;;;;10.86;61.60;100715.59;5032920;28;19913;-88
2022/12/29 14:51:25;;;;;;;;;;;;;;;10.80;61.58;100711.22;4987013;28;19917;-87
2022/12/29 14:53:50;;;;;;;;;;;;;;;10.41;62.85;100709.41;4992263;28;19933;-87
2022/12/29 14:56:17;;;;;;;;;;;;;;;10.66;62.45;100713.84;5005161;28;19917;-88
2022/12/29 14:58:49;;;;;;;;;;;;;;;10.64;62.26;100714.72;5005268;28;20260;-88
2022/12/29 15:01:20;;;;;;;;;;;;;;;10.53;62.46;100712.97;5012056;28;19917;-88